createdAt,value
2019-02-25T00:03:06.860Z,103060.27
2019-02-25T00:08:13.984Z,103064.16
2019-02-25T00:13:19.811Z,103071.91
2019-02-25T00:18:25.471Z,103059.38
2019-02-25T00:23:31.011Z,103055.00
2019-02-25T00:28:36.740Z,103052.91
2019-02-25T00:33:42.612Z,103043.98
2019-02-25T00:38:48.564Z,103036.69
2019-02-25T00:43:54.279Z,103028.20
2019-02-25T00:49:01.017Z,103034.43
2019-02-25T00:54:08.011Z,103036.53
2019-02-25T00:59:13.915Z,103039.23
2019-02-25T01:04:19.699Z,103050.29
2019-02-25T01:09:26.218Z,103052.16
2019-02-25T01:14:31.930Z,103039.75
2019-02-25T01:19:38.067Z,103037.84
2019-02-25T01:24:43.811Z,103032.95
2019-02-25T01:29:49.546Z,103037.78
2019-02-25T01:34:55.353Z,103041.03
2019-02-25T01:40:01.097Z,103035.23
2019-02-25T01:45:14.950Z,103024.16
2019-02-25T01:50:20.876Z,103021.81
2019-02-25T01:55:26.447Z,103019.55
2019-02-25T02:00:33.572Z,103016.27
2019-02-25T02:05:39.510Z,103009.86
2019-02-25T02:10:45.144Z,103014.03
2019-02-25T02:15:50.795Z,103008.73
2019-02-25T02:20:56.715Z,103012.91
2019-02-25T02:26:02.467Z,103013.09
2019-02-25T02:31:08.423Z,103012.72
2019-02-25T02:36:14.252Z,102993.23
2019-02-25T02:41:20.787Z,102997.33
2019-02-25T02:46:35.160Z,103004.38
2019-02-25T02:51:40.720Z,103006.44
2019-02-25T02:56:46.305Z,102975.86
2019-02-25T03:01:51.948Z,102986.02
2019-02-25T03:06:59.215Z,102979.25
2019-02-25T03:12:04.866Z,102979.95
2019-02-25T03:17:10.819Z,102978.41
2019-02-25T03:22:16.820Z,103004.60
2019-02-25T03:27:24.071Z,103000.27
2019-02-25T03:32:29.834Z,103007.67
2019-02-25T03:37:36.224Z,103000.40
2019-02-25T03:42:41.887Z,103010.99
2019-02-25T03:47:48.137Z,103010.73
2019-02-25T03:52:53.693Z,103019.20
2019-02-25T03:57:59.498Z,103016.36
2019-02-25T04:03:06.205Z,103001.46
2019-02-25T04:08:11.961Z,103001.22
2019-02-25T04:13:17.500Z,103005.05
2019-02-25T04:18:23.349Z,103000.02
2019-02-25T04:23:31.128Z,103001.67
2019-02-25T04:28:36.690Z,102992.52
2019-02-25T04:33:42.329Z,102970.84
2019-02-25T04:38:47.886Z,102985.98
2019-02-25T04:43:53.575Z,102985.02
2019-02-25T04:48:59.121Z,102989.31
2019-02-25T04:54:04.772Z,103000.05
2019-02-25T04:59:10.766Z,103004.91
2019-02-25T05:04:16.934Z,103007.18
2019-02-25T05:09:22.659Z,103001.70
2019-02-25T05:14:28.477Z,103005.48
2019-02-25T05:19:34.028Z,102995.27
2019-02-25T05:24:39.674Z,103023.11
2019-02-25T05:29:45.294Z,103019.23
2019-02-25T05:34:50.905Z,103022.84
2019-02-25T05:39:56.576Z,103018.91
2019-02-25T05:45:04.496Z,103029.25
2019-02-25T05:50:14.115Z,103033.91
2019-02-25T05:55:21.878Z,103026.55
2019-02-25T06:00:29.061Z,103034.32
2019-02-25T06:05:34.620Z,103029.34
2019-02-25T06:10:40.188Z,103031.07
2019-02-25T06:15:45.819Z,103031.20
2019-02-25T06:20:51.682Z,103040.02
2019-02-25T06:25:57.321Z,103037.00
2019-02-25T06:31:03.591Z,103035.12
2019-02-25T06:36:10.500Z,103035.80
2019-02-25T06:41:16.149Z,103047.70
2019-02-25T06:46:23.307Z,103046.05
2019-02-25T06:51:30.507Z,103048.69
2019-02-25T06:56:37.969Z,103055.81
2019-02-25T07:01:45.402Z,103055.09
2019-02-25T07:06:59.207Z,103063.55
2019-02-25T07:12:08.307Z,103084.52
2019-02-25T07:17:34.263Z,103082.30
2019-02-25T07:22:42.088Z,103093.64
2019-02-25T07:27:49.692Z,103090.25
2019-02-25T07:33:14.637Z,103086.46
2019-02-25T07:38:23.935Z,103094.29
2019-02-25T07:43:47.372Z,103098.44
2019-02-25T07:49:12.887Z,103099.80
2019-02-25T07:54:26.042Z,103100.30
2019-02-25T07:59:33.259Z,103103.04
2019-02-25T08:04:41.430Z,103102.17
2019-02-25T08:09:57.359Z,103110.50
2019-02-25T08:15:11.055Z,103111.84
2019-02-25T08:20:18.365Z,103110.23
2019-02-25T08:25:25.816Z,103088.72
2019-02-25T08:30:34.012Z,103083.98
2019-02-25T08:35:53.085Z,103085.05
2019-02-25T08:41:17.126Z,103080.19
2019-02-25T08:46:27.669Z,103083.94
2019-02-25T08:51:35.151Z,103090.02
2019-02-25T08:56:41.597Z,103104.13
2019-02-25T09:01:48.576Z,103101.19
2019-02-25T09:06:54.224Z,103100.95
2019-02-25T09:12:01.370Z,103101.09
2019-02-25T09:17:07.976Z,103095.50
2019-02-25T09:22:13.980Z,103101.34
2019-02-25T09:27:19.610Z,103101.50
2019-02-25T09:32:26.443Z,103094.06
2019-02-25T09:37:33.097Z,103093.92
2019-02-25T09:42:39.988Z,103098.98
2019-02-25T09:47:45.605Z,103081.91
2019-02-25T09:52:51.733Z,103081.95
2019-02-25T09:57:58.174Z,103084.96
2019-02-25T10:03:03.751Z,103081.56
2019-02-25T10:08:10.497Z,103080.35
2019-02-25T10:13:17.469Z,103077.47
2019-02-25T10:18:24.056Z,103054.34
2019-02-25T10:23:29.694Z,103047.53
2019-02-25T10:28:35.385Z,103053.06
2019-02-25T10:33:42.517Z,103047.27
2019-02-25T10:38:48.649Z,103049.27
2019-02-25T10:43:54.789Z,103048.11
2019-02-25T10:49:10.939Z,103040.58
2019-02-25T10:54:09.125Z,103031.66
2019-02-25T10:59:15.947Z,103028.15
2019-02-25T11:04:23.921Z,103018.45
2019-02-25T11:09:32.715Z,103019.67
2019-02-25T11:14:40.919Z,103016.75
2019-02-25T11:19:46.198Z,103015.82
2019-02-25T11:24:53.506Z,103002.02
2019-02-25T11:30:00.956Z,102994.12
2019-02-25T11:35:10.685Z,102983.83
2019-02-25T11:40:17.518Z,102997.45
2019-02-25T11:45:25.093Z,102984.64
2019-02-25T11:50:31.611Z,102998.47
2019-02-25T11:55:39.721Z,102988.80
2019-02-25T12:00:46.383Z,102970.57
2019-02-25T12:05:53.579Z,102980.63
2019-02-25T12:10:59.476Z,102963.17
2019-02-25T12:16:06.086Z,102951.72
2019-02-25T12:21:14.253Z,102927.89
2019-02-25T12:26:20.963Z,102921.48
2019-02-25T12:31:29.406Z,102895.63
2019-02-25T12:36:37.084Z,102894.07
2019-02-25T12:41:45.125Z,102875.38
2019-02-25T12:46:53.254Z,102873.77
2019-02-25T12:52:00.268Z,102863.92
2019-02-25T12:57:07.219Z,102859.83
2019-02-25T13:02:13.643Z,102858.19
2019-02-25T13:07:19.722Z,102838.19
2019-02-25T13:12:26.778Z,102848.93
2019-02-25T13:17:33.199Z,102838.91
2019-02-25T13:22:40.584Z,102838.45
2019-02-25T13:27:46.484Z,102856.87
2019-02-25T13:32:53.397Z,102865.22
2019-02-25T13:37:59.833Z,102851.13
2019-02-25T13:43:06.111Z,102859.84
2019-02-25T13:48:11.999Z,102865.71
2019-02-25T13:53:19.431Z,102875.57
2019-02-25T13:58:25.394Z,102875.69
2019-02-25T14:03:31.073Z,102871.01
2019-02-25T14:08:36.885Z,102863.95
2019-02-25T14:13:45.210Z,102851.46
2019-02-25T14:18:52.310Z,102841.64
2019-02-25T14:23:59.839Z,102839.00
2019-02-25T14:29:08.022Z,102825.44
2019-02-25T14:34:15.629Z,102826.28
2019-02-25T14:39:27.569Z,102815.53
2019-02-25T14:44:35.387Z,102821.95
2019-02-25T14:49:42.946Z,102809.09
2019-02-25T14:54:48.802Z,102810.05
2019-02-25T14:59:55.814Z,102785.27
2019-02-25T15:05:03.031Z,102800.84
2019-02-25T15:10:11.128Z,102806.32
2019-02-25T15:15:25.183Z,102788.81
2019-02-25T15:20:31.450Z,102795.36
2019-02-25T15:25:42.117Z,102795.63
2019-02-25T15:30:47.104Z,102789.88
2019-02-25T15:35:54.596Z,102782.61
2019-02-25T15:41:04.428Z,102789.19
2019-02-25T15:46:12.395Z,102796.69
2019-02-25T15:51:20.375Z,102795.13
2019-02-25T15:56:33.361Z,102802.03
2019-02-25T16:01:39.141Z,102809.17
2019-02-25T16:06:45.976Z,102805.19
2019-02-25T16:11:55.367Z,102799.59
2019-02-25T16:17:01.667Z,102798.63
2019-02-25T16:22:11.760Z,102807.94
2019-02-25T16:27:21.075Z,102791.08
2019-02-25T16:32:27.729Z,102784.55
2019-02-25T16:37:35.565Z,102782.80
2019-02-25T16:42:42.631Z,102783.94
2019-02-25T16:47:50.963Z,102782.22
2019-02-25T16:52:57.863Z,102792.02
2019-02-25T16:58:06.164Z,102789.91
2019-02-25T17:03:13.793Z,102791.63
2019-02-25T17:08:24.004Z,102806.59
2019-02-25T17:13:32.495Z,102799.78
2019-02-25T17:18:39.845Z,102803.11
2019-02-25T17:23:46.399Z,102804.48
2019-02-25T17:28:52.528Z,102799.80
2019-02-25T17:33:59.383Z,102811.02
2019-02-25T17:39:08.728Z,102808.61
2019-02-25T17:44:17.864Z,102796.91
2019-02-25T17:49:23.185Z,102793.70
2019-02-25T17:54:31.228Z,102806.05
2019-02-25T17:59:39.265Z,102799.06
2019-02-25T18:04:47.115Z,102792.87
2019-02-25T18:09:54.906Z,102797.94
2019-02-25T18:15:01.484Z,102782.50
2019-02-25T18:20:11.923Z,102777.81
2019-02-25T18:25:20.489Z,102774.61
2019-02-25T18:30:33.314Z,102776.86
2019-02-25T18:35:41.629Z,102785.47
2019-02-25T18:40:49.223Z,102783.41
2019-02-25T18:45:56.320Z,102780.53
2019-02-25T18:51:03.639Z,102756.96
2019-02-25T18:56:14.151Z,102760.47
2019-02-25T19:01:20.714Z,102775.47
2019-02-25T19:06:26.607Z,102778.58
2019-02-25T19:11:32.840Z,102771.59
2019-02-25T19:16:40.041Z,102772.02
2019-02-25T19:21:47.860Z,102772.37
2019-02-25T19:26:55.016Z,102782.66
2019-02-25T19:32:01.693Z,102779.58
2019-02-25T19:37:11.930Z,102774.03
2019-02-25T19:42:19.785Z,102765.73
2019-02-25T19:47:24.605Z,102765.98
2019-02-25T19:52:34.742Z,102766.02
2019-02-25T19:57:38.659Z,102764.45
2019-02-25T20:02:47.981Z,102764.21
2019-02-25T20:07:56.522Z,102770.80
2019-02-25T20:13:08.515Z,102765.22
2019-02-25T20:18:14.347Z,102775.11
2019-02-25T20:23:23.983Z,102755.19
2019-02-25T20:28:28.235Z,102745.88
2019-02-25T20:33:35.200Z,102750.29
2019-02-25T20:38:43.796Z,102755.64
2019-02-25T20:43:53.971Z,102750.10
2019-02-25T20:48:59.937Z,102747.97
2019-02-25T20:54:06.113Z,102733.57
2019-02-25T20:59:11.745Z,102733.95
2019-02-25T21:04:21.794Z,102733.42
2019-02-25T21:09:27.304Z,102724.22
2019-02-25T21:14:35.671Z,102722.68
2019-02-25T21:19:44.285Z,102715.17
2019-02-25T21:24:53.974Z,102706.41
2019-02-25T21:29:58.985Z,102714.45
2019-02-25T21:35:10.214Z,102719.23
2019-02-25T21:40:17.606Z,102704.48
2019-02-25T21:45:25.166Z,102700.49
2019-02-25T21:50:33.533Z,102709.85
2019-02-25T21:55:38.509Z,102696.77
2019-02-25T22:00:44.474Z,102702.38
2019-02-25T22:05:51.744Z,102700.17
2019-02-25T22:11:11.647Z,102695.58
2019-02-25T22:16:07.915Z,102705.46
2019-02-25T22:21:14.179Z,102699.19
2019-02-25T22:26:24.121Z,102708.53
2019-02-25T22:31:28.724Z,102711.66
2019-02-25T22:36:34.719Z,102703.66
2019-02-25T22:41:42.297Z,102714.05
2019-02-25T22:46:47.949Z,102725.84
2019-02-25T22:51:55.767Z,102729.34
2019-02-25T22:57:00.962Z,102721.74
2019-02-25T23:02:08.773Z,102722.49
2019-02-25T23:07:15.240Z,102715.46
2019-02-25T23:12:24.276Z,102708.81
2019-02-25T23:17:35.100Z,102692.20
2019-02-25T23:22:39.588Z,102673.55
2019-02-25T23:27:45.555Z,102664.86
2019-02-25T23:32:52.362Z,102659.21
2019-02-25T23:38:00.861Z,102642.66
2019-02-25T23:43:07.487Z,102648.55
2019-02-25T23:48:15.214Z,102648.00
2019-02-25T23:53:20.788Z,102657.84
2019-02-25T23:58:26.638Z,102654.19
